createdAt,value
2023-04-30T00:02:11.908Z,8.15
2023-04-30T00:04:41.646Z,4.68
2023-04-30T00:07:12.257Z,5.07
2023-04-30T00:09:41.527Z,7.18
2023-04-30T00:12:14.561Z,5.68
2023-04-30T00:14:42.423Z,5.88
2023-04-30T00:17:12.124Z,8.30
2023-04-30T00:19:42.619Z,6.38
2023-04-30T00:22:12.529Z,6.43
2023-04-30T00:24:42.284Z,4.07
2023-04-30T00:27:10.763Z,6.65
2023-04-30T00:29:39.277Z,9.13
2023-04-30T00:32:07.585Z,9.88
2023-04-30T00:34:35.966Z,8.57
2023-04-30T00:37:04.543Z,8.25
2023-04-30T00:39:32.812Z,9.13
2023-04-30T00:42:01.183Z,6.68
2023-04-30T00:44:29.688Z,4.05
2023-04-30T00:46:58.124Z,7.30
2023-04-30T00:49:26.949Z,8.68
2023-04-30T00:51:55.726Z,10.15
2023-04-30T00:54:26.111Z,7.47
2023-04-30T00:56:55.102Z,7.20
2023-04-30T00:59:24.731Z,8.07
2023-04-30T01:01:54.950Z,5.28
2023-04-30T01:04:25.038Z,7.35
2023-04-30T01:06:56.868Z,8.05
2023-04-30T01:09:25.458Z,4.65
2023-04-30T01:12:31.807Z,8.07
2023-04-30T01:15:43.036Z,6.28
2023-04-30T01:18:52.059Z,6.00
2023-04-30T01:21:24.614Z,6.85
2023-04-30T01:24:57.356Z,6.25
2023-04-30T01:28:03.105Z,5.45
2023-04-30T01:30:35.858Z,8.77
2023-04-30T01:33:06.000Z,7.38
2023-04-30T01:36:19.353Z,8.07
2023-04-30T01:39:21.159Z,11.07
2023-04-30T01:42:12.764Z,10.00
2023-04-30T01:45:52.131Z,9.80
2023-04-30T01:49:27.147Z,11.77
2023-04-30T01:52:46.008Z,12.82
2023-04-30T01:55:30.709Z,8.25
2023-04-30T01:58:07.349Z,9.90
2023-04-30T02:00:37.508Z,13.07
2023-04-30T02:03:06.325Z,8.30
2023-04-30T02:05:34.661Z,14.55
2023-04-30T02:08:03.487Z,10.23
2023-04-30T02:10:31.471Z,14.35
2023-04-30T02:12:59.910Z,10.40
2023-04-30T02:15:28.489Z,15.43
2023-04-30T02:17:57.174Z,9.07
2023-04-30T02:20:25.690Z,14.48
2023-04-30T02:22:54.081Z,8.80
2023-04-30T02:25:22.510Z,8.07
2023-04-30T02:27:51.558Z,17.15
2023-04-30T02:30:21.077Z,10.55
2023-04-30T02:32:50.844Z,6.40
2023-04-30T02:35:19.227Z,10.85
2023-04-30T02:37:47.826Z,9.07
2023-04-30T02:40:16.453Z,11.80
2023-04-30T02:42:44.842Z,12.00
2023-04-30T02:45:13.294Z,14.48
2023-04-30T02:47:41.724Z,17.88
2023-04-30T02:50:10.984Z,10.68
2023-04-30T02:52:38.690Z,5.82
2023-04-30T02:55:08.256Z,9.90
2023-04-30T02:57:35.663Z,13.43
2023-04-30T03:00:05.713Z,9.52
2023-04-30T03:02:35.937Z,8.80
2023-04-30T03:05:07.015Z,10.10
2023-04-30T03:07:37.176Z,11.07
2023-04-30T03:10:08.856Z,7.93
2023-04-30T03:12:39.028Z,7.18
2023-04-30T03:15:09.954Z,9.48
2023-04-30T03:17:40.201Z,11.43
2023-04-30T03:20:11.696Z,7.57
2023-04-30T03:22:42.043Z,5.93
2023-04-30T03:25:11.756Z,10.18
2023-04-30T03:27:41.641Z,7.68
2023-04-30T03:30:10.770Z,13.80
2023-04-30T03:32:39.084Z,6.40
2023-04-30T03:35:08.547Z,8.25
2023-04-30T03:37:38.630Z,12.60
2023-04-30T03:40:09.572Z,15.52
2023-04-30T03:42:39.682Z,8.50
2023-04-30T03:45:10.608Z,8.02
2023-04-30T03:47:40.911Z,8.35
2023-04-30T03:50:12.456Z,13.00
2023-04-30T03:52:42.567Z,10.15
2023-04-30T03:55:13.083Z,9.27
2023-04-30T03:57:43.585Z,10.63
2023-04-30T04:00:14.670Z,10.77
2023-04-30T04:02:45.405Z,12.60
2023-04-30T04:05:15.856Z,10.40
2023-04-30T04:07:46.002Z,11.20
2023-04-30T04:10:16.197Z,7.13
2023-04-30T04:12:46.775Z,10.25
2023-04-30T04:15:16.922Z,8.50
2023-04-30T04:17:45.380Z,6.25
2023-04-30T04:20:14.111Z,7.68
2023-04-30T04:22:42.202Z,10.30
2023-04-30T04:25:11.155Z,8.70
2023-04-30T04:27:39.002Z,10.07
2023-04-30T04:30:08.410Z,10.82
2023-04-30T04:32:42.243Z,9.18
2023-04-30T04:35:18.782Z,13.05
2023-04-30T04:37:47.225Z,7.13
2023-04-30T04:40:17.498Z,11.27
2023-04-30T04:42:52.215Z,11.82
2023-04-30T04:45:23.865Z,10.85
2023-04-30T04:47:53.077Z,8.68
2023-04-30T04:50:23.022Z,10.98
2023-04-30T04:52:53.045Z,12.57
2023-04-30T04:55:23.476Z,13.10
2023-04-30T04:57:53.498Z,10.25
2023-04-30T05:00:23.688Z,18.05
2023-04-30T05:02:53.862Z,10.02
2023-04-30T05:05:24.088Z,9.52
2023-04-30T05:07:55.127Z,10.30
2023-04-30T05:10:25.684Z,11.63
2023-04-30T05:12:54.940Z,15.65
2023-04-30T05:15:24.841Z,13.82
2023-04-30T05:17:54.578Z,9.32
2023-04-30T05:20:25.015Z,10.38
2023-04-30T05:22:54.446Z,10.55
2023-04-30T05:25:24.285Z,10.65
2023-04-30T05:27:54.316Z,10.25
2023-04-30T05:30:24.346Z,10.43
2023-04-30T05:32:54.028Z,9.07
2023-04-30T05:35:24.176Z,9.75
2023-04-30T05:37:54.469Z,9.93
2023-04-30T05:40:24.126Z,11.88
2023-04-30T05:42:53.995Z,13.90
2023-04-30T05:45:24.289Z,10.98
2023-04-30T05:47:54.310Z,9.55
2023-04-30T05:50:24.110Z,12.40
2023-04-30T05:52:53.843Z,8.13
2023-04-30T05:55:23.712Z,13.68
2023-04-30T05:57:53.414Z,12.10
2023-04-30T06:00:23.668Z,8.35
2023-04-30T06:02:54.314Z,11.88
2023-04-30T06:05:24.180Z,8.80
2023-04-30T06:07:53.940Z,8.82
2023-04-30T06:10:24.156Z,16.52
2023-04-30T06:12:53.682Z,13.52
2023-04-30T06:15:23.453Z,12.73
2023-04-30T06:17:53.385Z,8.23
2023-04-30T06:20:21.750Z,10.45
2023-04-30T06:22:50.189Z,9.23
2023-04-30T06:25:18.890Z,14.15
2023-04-30T06:27:47.324Z,11.32
2023-04-30T06:30:15.969Z,11.98
2023-04-30T06:32:43.971Z,10.43
2023-04-30T06:35:12.341Z,12.82
2023-04-30T06:37:40.878Z,15.32
2023-04-30T06:40:10.007Z,11.95
2023-04-30T06:42:38.017Z,12.93
2023-04-30T06:45:07.377Z,11.68
2023-04-30T06:47:38.174Z,9.40
2023-04-30T06:50:07.330Z,7.28
2023-04-30T06:52:35.354Z,14.10
2023-04-30T06:55:03.684Z,10.07
2023-04-30T06:57:32.038Z,13.90
2023-04-30T07:00:00.730Z,9.45
2023-04-30T07:02:28.823Z,7.90
2023-04-30T07:04:57.098Z,17.60
2023-04-30T07:07:25.673Z,7.93
2023-04-30T07:09:54.316Z,6.93
2023-04-30T07:12:22.941Z,19.77
2023-04-30T07:14:51.036Z,10.35
2023-04-30T07:17:19.687Z,9.25
2023-04-30T07:19:47.817Z,11.52
2023-04-30T07:22:16.332Z,8.43
2023-04-30T07:24:44.917Z,10.23
2023-04-30T07:27:13.273Z,11.07
2023-04-30T07:29:41.750Z,11.50
2023-04-30T07:32:10.040Z,10.07
2023-04-30T07:34:38.513Z,9.32
2023-04-30T07:37:06.974Z,10.38
2023-04-30T07:39:39.299Z,12.75
2023-04-30T07:42:12.678Z,10.88
2023-04-30T07:44:44.021Z,10.52
2023-04-30T07:47:14.182Z,8.80
2023-04-30T07:49:44.375Z,9.43
2023-04-30T07:52:12.889Z,9.90
2023-04-30T07:54:42.419Z,7.05
2023-04-30T07:57:11.329Z,10.23
2023-04-30T07:59:39.395Z,11.30
2023-04-30T08:02:09.997Z,8.43
2023-04-30T08:04:40.149Z,13.35
2023-04-30T08:07:10.393Z,9.93
2023-04-30T08:09:40.529Z,9.70
2023-04-30T08:12:18.058Z,7.53
2023-04-30T08:14:48.225Z,9.45
2023-04-30T08:17:18.341Z,9.45
2023-04-30T08:19:48.794Z,10.90
2023-04-30T08:22:18.932Z,9.23
2023-04-30T08:24:49.487Z,7.22
2023-04-30T08:27:19.597Z,12.38
2023-04-30T08:29:49.800Z,9.65
2023-04-30T08:32:20.596Z,9.27
2023-04-30T08:34:51.836Z,6.82
2023-04-30T08:37:22.127Z,6.88
2023-04-30T08:39:52.270Z,10.52
2023-04-30T08:42:34.604Z,10.75
2023-04-30T08:45:06.490Z,6.35
2023-04-30T08:47:39.098Z,11.07
2023-04-30T08:50:10.432Z,8.50
2023-04-30T08:52:43.892Z,11.57
2023-04-30T08:55:14.048Z,6.85
2023-04-30T08:57:44.223Z,8.15
2023-04-30T09:00:14.929Z,6.53
2023-04-30T09:02:49.528Z,7.65
2023-04-30T09:05:19.799Z,6.35
2023-04-30T09:08:01.574Z,6.97
2023-04-30T09:10:35.574Z,6.53
2023-04-30T09:13:12.231Z,7.63
2023-04-30T09:15:43.306Z,6.03
2023-04-30T09:18:19.942Z,6.85
2023-04-30T09:21:03.698Z,13.32
2023-04-30T09:23:31.446Z,7.15
2023-04-30T09:26:00.892Z,8.88
2023-04-30T09:28:29.367Z,10.50
2023-04-30T09:30:58.411Z,9.88
2023-04-30T09:33:30.322Z,14.32
2023-04-30T09:36:10.146Z,8.68
2023-04-30T09:38:40.849Z,7.50
2023-04-30T09:41:29.408Z,6.50
2023-04-30T09:43:59.565Z,3.78
2023-04-30T09:46:37.491Z,8.90
2023-04-30T09:49:07.794Z,9.48
2023-04-30T09:52:01.777Z,7.53
2023-04-30T09:54:32.785Z,7.53
2023-04-30T09:57:03.808Z,9.00
2023-04-30T09:59:38.039Z,4.85
2023-04-30T10:02:09.993Z,6.28
2023-04-30T10:04:52.767Z,6.07
2023-04-30T10:07:36.503Z,6.35
2023-04-30T10:10:11.807Z,4.97
2023-04-30T10:13:05.328Z,8.05
2023-04-30T10:15:52.064Z,5.18
2023-04-30T10:18:35.484Z,6.03
2023-04-30T10:21:14.336Z,6.28
2023-04-30T10:23:45.901Z,5.25
2023-04-30T10:26:17.182Z,5.85
2023-04-30T10:28:52.043Z,5.45
2023-04-30T10:31:24.468Z,3.83
2023-04-30T10:34:32.898Z,7.65
2023-04-30T10:37:32.892Z,3.47
2023-04-30T10:40:05.393Z,7.45
2023-04-30T10:42:37.162Z,6.28
2023-04-30T10:45:10.872Z,5.00
2023-04-30T10:47:46.009Z,8.57
2023-04-30T10:50:15.482Z,7.85
2023-04-30T10:52:44.717Z,3.55
2023-04-30T10:55:18.253Z,8.25
2023-04-30T10:57:50.063Z,5.45
2023-04-30T11:00:29.018Z,6.53
2023-04-30T11:03:04.512Z,3.38
2023-04-30T11:05:40.135Z,7.28
2023-04-30T11:08:13.119Z,5.45
2023-04-30T11:11:01.825Z,8.10
2023-04-30T11:13:45.332Z,7.70
2023-04-30T11:16:20.398Z,7.10
2023-04-30T11:18:52.704Z,6.07
2023-04-30T11:21:22.818Z,7.65
2023-04-30T11:24:02.649Z,10.93
2023-04-30T11:27:08.694Z,8.60
2023-04-30T11:29:40.364Z,7.53
2023-04-30T11:32:11.162Z,6.82
2023-04-30T11:34:45.410Z,9.23
2023-04-30T11:37:21.529Z,8.10
2023-04-30T11:39:53.349Z,7.97
2023-04-30T11:42:23.720Z,6.05
2023-04-30T11:44:53.923Z,6.50
2023-04-30T11:47:24.167Z,3.90
2023-04-30T11:49:57.791Z,6.65
2023-04-30T11:52:28.678Z,5.47
2023-04-30T11:55:00.493Z,6.95
2023-04-30T11:57:40.979Z,7.10
2023-04-30T12:00:21.156Z,5.15
2023-04-30T12:02:51.538Z,6.95
2023-04-30T12:05:28.187Z,4.97
2023-04-30T12:08:06.617Z,5.90
2023-04-30T12:10:37.248Z,4.07
2023-04-30T12:13:07.453Z,5.45
2023-04-30T12:15:39.816Z,8.15
2023-04-30T12:18:15.682Z,7.22
2023-04-30T12:20:46.373Z,6.40
2023-04-30T12:23:16.905Z,5.80
2023-04-30T12:25:47.857Z,5.78
2023-04-30T12:28:18.293Z,6.38
2023-04-30T12:30:48.493Z,6.85
2023-04-30T12:33:19.192Z,6.45
2023-04-30T12:35:53.551Z,6.13
2023-04-30T12:38:23.719Z,5.85
2023-04-30T12:40:53.841Z,6.45
2023-04-30T12:43:24.157Z,6.70
2023-04-30T12:45:58.063Z,7.10
2023-04-30T12:48:28.264Z,5.15
2023-04-30T12:51:03.252Z,9.57
2023-04-30T12:53:33.489Z,7.72
2023-04-30T12:56:17.157Z,6.05
2023-04-30T12:58:51.328Z,7.75
2023-04-30T13:01:24.760Z,8.80
2023-04-30T13:03:55.164Z,5.07
2023-04-30T13:06:25.697Z,7.00
2023-04-30T13:08:58.333Z,7.25
2023-04-30T13:11:29.125Z,5.03
2023-04-30T13:13:59.277Z,6.93
2023-04-30T13:16:31.249Z,6.55
2023-04-30T13:19:01.457Z,5.75
2023-04-30T13:21:32.998Z,5.60
2023-04-30T13:24:03.159Z,7.15
2023-04-30T13:26:33.402Z,9.23
2023-04-30T13:29:04.446Z,7.88
2023-04-30T13:31:34.896Z,5.43
2023-04-30T13:34:03.283Z,8.40
2023-04-30T13:36:31.414Z,11.52
2023-04-30T13:39:00.394Z,5.95
2023-04-30T13:41:28.470Z,5.90
2023-04-30T13:43:56.677Z,9.68
2023-04-30T13:46:25.152Z,7.00
2023-04-30T13:48:53.607Z,9.70
2023-04-30T13:51:21.959Z,5.32
2023-04-30T13:53:50.384Z,7.45
2023-04-30T13:56:18.756Z,9.80
2023-04-30T13:58:47.337Z,6.88
2023-04-30T14:01:15.684Z,4.43
2023-04-30T14:03:44.292Z,7.28
2023-04-30T14:06:12.705Z,7.18
2023-04-30T14:08:40.891Z,16.67
2023-04-30T14:11:09.329Z,7.07
2023-04-30T14:13:37.802Z,9.95
2023-04-30T14:16:06.473Z,7.18
2023-04-30T14:18:34.612Z,6.72
2023-04-30T14:21:03.066Z,10.02
2023-04-30T14:23:31.398Z,5.93
2023-04-30T14:25:59.919Z,6.78
2023-04-30T14:28:28.253Z,7.60
2023-04-30T14:30:56.762Z,6.18
2023-04-30T14:33:25.205Z,7.05
2023-04-30T14:35:54.562Z,4.80
2023-04-30T14:38:22.080Z,5.45
2023-04-30T14:40:50.588Z,5.57
2023-04-30T14:43:18.914Z,5.40
2023-04-30T14:45:47.343Z,7.03
2023-04-30T14:48:15.786Z,7.05
2023-04-30T14:50:45.682Z,6.45
2023-04-30T14:53:15.447Z,7.70
2023-04-30T14:55:43.987Z,9.38
2023-04-30T14:58:12.514Z,7.45
2023-04-30T15:00:40.944Z,5.90
2023-04-30T15:03:09.534Z,4.53
2023-04-30T15:05:37.623Z,5.28
2023-04-30T15:08:06.810Z,7.07
2023-04-30T15:10:34.459Z,7.35
2023-04-30T15:13:05.902Z,10.23
2023-04-30T15:15:37.495Z,6.07
2023-04-30T15:18:07.732Z,7.28
2023-04-30T15:20:37.920Z,5.05
2023-04-30T15:23:08.580Z,6.88
2023-04-30T15:25:38.741Z,7.40
2023-04-30T15:28:08.962Z,5.97
2023-04-30T15:30:39.397Z,5.90
2023-04-30T15:33:09.591Z,4.78
2023-04-30T15:35:41.250Z,6.20
2023-04-30T15:38:11.478Z,9.95
2023-04-30T15:40:41.698Z,7.30
2023-04-30T15:43:11.837Z,5.65
2023-04-30T15:45:42.204Z,8.65
2023-04-30T15:48:12.368Z,5.70
2023-04-30T15:50:42.600Z,7.28
2023-04-30T15:53:12.753Z,8.90
2023-04-30T15:55:43.318Z,7.47
2023-04-30T15:58:13.461Z,6.10
2023-04-30T16:00:43.981Z,4.38
2023-04-30T16:03:14.226Z,7.90
2023-04-30T16:05:44.461Z,3.65
2023-04-30T16:08:15.617Z,5.82
2023-04-30T16:10:46.121Z,9.60
2023-04-30T16:13:16.230Z,9.30
2023-04-30T16:15:47.589Z,7.68
2023-04-30T16:18:17.828Z,7.28
2023-04-30T16:20:49.250Z,9.00
2023-04-30T16:23:19.452Z,6.90
2023-04-30T16:25:49.657Z,5.15
2023-04-30T16:28:19.763Z,7.97
2023-04-30T16:30:50.412Z,5.63
2023-04-30T16:33:21.897Z,7.85
2023-04-30T16:35:52.369Z,7.20
2023-04-30T16:38:23.067Z,10.98
2023-04-30T16:40:53.971Z,8.00
2023-04-30T16:43:24.139Z,5.72
2023-04-30T16:45:54.345Z,6.30
2023-04-30T16:48:24.567Z,7.43
2023-04-30T16:50:54.759Z,6.47
2023-04-30T16:53:24.921Z,10.10
2023-04-30T16:55:55.616Z,5.03
2023-04-30T16:58:25.732Z,8.82
2023-04-30T17:00:56.357Z,5.95
2023-04-30T17:03:25.853Z,4.80
2023-04-30T17:05:54.139Z,7.47
2023-04-30T17:08:23.172Z,9.85
2023-04-30T17:10:50.934Z,8.63
2023-04-30T17:13:19.357Z,8.30
2023-04-30T17:15:48.907Z,7.20
2023-04-30T17:18:16.405Z,8.40
2023-04-30T17:20:46.621Z,10.75
2023-04-30T17:23:16.826Z,7.00
2023-04-30T17:25:47.982Z,6.05
2023-04-30T17:28:18.154Z,10.48
2023-04-30T17:30:48.349Z,9.35
2023-04-30T17:33:18.428Z,6.90
2023-04-30T17:35:46.971Z,9.65
2023-04-30T17:38:15.838Z,7.55
2023-04-30T17:40:43.757Z,8.40
2023-04-30T17:43:12.197Z,8.30
2023-04-30T17:45:40.566Z,8.15
2023-04-30T17:48:09.106Z,8.40
2023-04-30T17:50:37.750Z,8.43
2023-04-30T17:53:05.788Z,11.48
2023-04-30T17:55:34.164Z,10.15
2023-04-30T17:58:04.021Z,7.88
2023-04-30T18:00:34.488Z,8.65
2023-04-30T18:03:02.721Z,9.25
2023-04-30T18:05:31.597Z,9.45
2023-04-30T18:08:03.548Z,13.05
2023-04-30T18:10:33.763Z,14.02
2023-04-30T18:13:04.343Z,9.57
2023-04-30T18:15:34.455Z,11.27
2023-04-30T18:20:34.811Z,7.93
2023-04-30T18:23:08.417Z,8.05
2023-04-30T18:25:42.577Z,17.90
2023-04-30T18:28:12.853Z,9.93
2023-04-30T18:30:43.291Z,7.10
2023-04-30T18:33:13.470Z,7.72
2023-04-30T18:35:46.780Z,7.72
2023-04-30T18:38:14.989Z,9.75
2023-04-30T18:40:43.526Z,7.40
2023-04-30T18:43:12.012Z,7.32
2023-04-30T18:45:40.390Z,10.27
2023-04-30T18:48:09.075Z,8.32
2023-04-30T18:50:37.344Z,7.63
2023-04-30T18:53:07.174Z,7.72
2023-04-30T18:55:37.048Z,8.45
2023-04-30T18:58:05.393Z,7.20
2023-04-30T19:00:34.304Z,7.97
2023-04-30T19:03:02.779Z,7.50
2023-04-30T19:05:32.462Z,5.72
2023-04-30T19:08:02.788Z,9.15
2023-04-30T19:10:36.484Z,13.18
2023-04-30T19:13:07.164Z,7.60
2023-04-30T19:15:37.328Z,8.38
2023-04-30T19:18:07.470Z,9.15
2023-04-30T19:20:37.989Z,7.68
2023-04-30T19:23:09.484Z,10.57
2023-04-30T19:25:40.218Z,9.70
2023-04-30T19:28:11.519Z,7.32
2023-04-30T19:30:42.893Z,6.15
2023-04-30T19:33:13.089Z,9.95
2023-04-30T19:35:43.236Z,6.70
2023-04-30T19:38:13.333Z,11.85
2023-04-30T19:40:53.266Z,10.05
2023-04-30T19:43:24.982Z,6.78
2023-04-30T19:45:58.500Z,11.07
2023-04-30T19:48:28.770Z,9.55
2023-04-30T19:50:58.895Z,12.48
2023-04-30T19:53:29.297Z,9.60
2023-04-30T19:56:00.022Z,9.65
2023-04-30T19:58:30.132Z,12.35
2023-04-30T20:01:01.075Z,10.70
2023-04-30T20:03:31.993Z,10.43
2023-04-30T20:06:05.982Z,13.27
2023-04-30T20:08:36.669Z,11.70
2023-04-30T20:11:07.148Z,9.90
2023-04-30T20:13:37.308Z,12.48
2023-04-30T20:16:11.386Z,13.15
2023-04-30T20:18:42.226Z,11.93
2023-04-30T20:21:12.621Z,12.07
2023-04-30T20:23:41.194Z,16.17
2023-04-30T20:26:10.800Z,15.20
2023-04-30T20:28:40.798Z,20.45
2023-04-30T20:31:09.852Z,17.33
2023-04-30T20:33:37.841Z,17.77
2023-04-30T20:36:06.680Z,17.95
2023-04-30T20:38:34.738Z,16.55
2023-04-30T20:41:03.132Z,16.38
2023-04-30T20:43:31.512Z,14.98
2023-04-30T20:46:00.935Z,14.77
2023-04-30T20:48:28.496Z,18.48
2023-04-30T20:50:56.945Z,16.63
2023-04-30T20:53:25.469Z,16.55
2023-04-30T20:55:59.868Z,15.23
2023-04-30T20:58:29.733Z,19.55
2023-04-30T21:00:59.570Z,16.50
2023-04-30T21:03:29.446Z,21.48
2023-04-30T21:05:57.866Z,19.23
2023-04-30T21:08:26.628Z,17.60
2023-04-30T21:10:54.684Z,21.77
2023-04-30T21:13:23.096Z,19.02
2023-04-30T21:15:53.621Z,19.13
2023-04-30T21:18:23.017Z,22.67
2023-04-30T21:20:51.717Z,24.70
2023-04-30T21:23:20.045Z,18.88
2023-04-30T21:25:48.465Z,20.00
2023-04-30T21:28:16.621Z,23.17
2023-04-30T21:30:46.531Z,24.20
2023-04-30T21:33:16.956Z,18.25
2023-04-30T21:35:45.257Z,31.00
2023-04-30T21:38:14.021Z,22.85
2023-04-30T21:40:43.494Z,16.55
2023-04-30T21:43:13.792Z,21.83
2023-04-30T21:45:43.684Z,18.63
2023-04-30T21:48:13.829Z,17.35
2023-04-30T21:50:44.424Z,18.95
2023-04-30T21:53:13.953Z,20.75
2023-04-30T21:55:44.177Z,20.98
2023-04-30T21:58:14.461Z,16.90
2023-04-30T22:00:44.066Z,18.90
2023-04-30T22:03:15.706Z,18.73
2023-04-30T22:05:46.485Z,19.70
2023-04-30T22:08:16.732Z,17.75
2023-04-30T22:10:47.400Z,21.40
2023-04-30T22:13:16.417Z,18.08
2023-04-30T22:15:48.493Z,16.55
2023-04-30T22:18:20.130Z,19.13
2023-04-30T22:20:51.646Z,19.02
2023-04-30T22:23:21.572Z,21.42
2023-04-30T22:25:50.744Z,20.60
2023-04-30T22:28:20.477Z,17.88
2023-04-30T22:30:50.179Z,19.95
2023-04-30T22:33:19.795Z,21.42
2023-04-30T22:35:51.145Z,22.10
2023-04-30T22:38:21.399Z,26.70
2023-04-30T22:40:51.831Z,23.48
2023-04-30T22:43:22.078Z,20.23
2023-04-30T22:45:52.761Z,27.67
2023-04-30T22:48:23.389Z,24.75
2023-04-30T22:50:54.044Z,24.50
2023-04-30T22:53:24.958Z,22.90
2023-04-30T22:55:55.899Z,26.65
2023-04-30T22:58:26.153Z,24.92
2023-04-30T23:00:56.440Z,24.40
2023-04-30T23:03:27.221Z,21.75
2023-04-30T23:05:59.906Z,26.63
2023-04-30T23:08:30.693Z,28.10
2023-04-30T23:11:01.759Z,26.35
2023-04-30T23:13:32.647Z,27.52
2023-04-30T23:16:05.726Z,28.48
2023-04-30T23:18:37.380Z,26.25
2023-04-30T23:21:07.876Z,26.92
2023-04-30T23:23:38.068Z,31.67
2023-04-30T23:26:08.391Z,25.70
2023-04-30T23:28:38.640Z,23.52
2023-04-30T23:31:08.899Z,27.60
2023-04-30T23:33:39.105Z,24.48
2023-04-30T23:36:09.247Z,33.97
2023-04-30T23:38:39.431Z,29.77
2023-04-30T23:41:09.604Z,27.58
2023-04-30T23:43:39.975Z,29.08
2023-04-30T23:46:10.278Z,25.35
2023-04-30T23:48:41.044Z,26.65
2023-04-30T23:51:11.748Z,26.35
2023-04-30T23:53:41.883Z,24.65
2023-04-30T23:56:12.063Z,26.33
2023-04-30T23:58:42.368Z,25.80
